sensor_id;sensor_type;location;lat;lon;timestamp;P1;durP1;ratioP1;P2;durP2;ratioP2
34317;SDS011;20582;52.196;20.952;2023-07-09T00:02:15;7.55;;;4.55;;
34317;SDS011;20582;52.196;20.952;2023-07-09T00:04:41;10.23;;;4.85;;
34317;SDS011;20582;52.196;20.952;2023-07-09T00:07:11;9.35;;;4.60;;
34317;SDS011;20582;52.196;20.952;2023-07-09T00:09:39;13.82;;;4.97;;
34317;SDS011;20582;52.196;20.952;2023-07-09T00:12:05;7.90;;;4.65;;
34317;SDS011;20582;52.196;20.952;2023-07-09T00:14:33;7.28;;;4.75;;
34317;SDS011;20582;52.196;20.952;2023-07-09T00:16:59;11.90;;;5.10;;
34317;SDS011;20582;52.196;20.952;2023-07-09T00:19:25;13.07;;;5.13;;
34317;SDS011;20582;52.196;20.952;2023-07-09T00:21:54;9.68;;;5.20;;
34317;SDS011;20582;52.196;20.952;2023-07-09T00:24:20;10.65;;;5.20;;
34317;SDS011;20582;52.196;20.952;2023-07-09T00:26:46;9.48;;;4.80;;
34317;SDS011;20582;52.196;20.952;2023-07-09T00:29:13;10.75;;;4.82;;
34317;SDS011;20582;52.196;20.952;2023-07-09T00:31:39;9.75;;;4.80;;
34317;SDS011;20582;52.196;20.952;2023-07-09T00:34:06;11.18;;;4.68;;
34317;SDS011;20582;52.196;20.952;2023-07-09T00:36:33;7.85;;;4.93;;
34317;SDS011;20582;52.196;20.952;2023-07-09T00:38:59;9.40;;;4.82;;
34317;SDS011;20582;52.196;20.952;2023-07-09T00:41:29;9.63;;;4.60;;
34317;SDS011;20582;52.196;20.952;2023-07-09T00:43:57;8.95;;;4.80;;
34317;SDS011;20582;52.196;20.952;2023-07-09T00:48:56;10.65;;;5.68;;
34317;SDS011;20582;52.196;20.952;2023-07-09T00:51:23;9.68;;;5.28;;
34317;SDS011;20582;52.196;20.952;2023-07-09T00:53:51;9.23;;;5.25;;
34317;SDS011;20582;52.196;20.952;2023-07-09T00:56:28;8.13;;;4.45;;
34317;SDS011;20582;52.196;20.952;2023-07-09T00:58:54;9.75;;;4.72;;
34317;SDS011;20582;52.196;20.952;2023-07-09T01:01:21;8.85;;;4.80;;
34317;SDS011;20582;52.196;20.952;2023-07-09T01:03:49;9.00;;;4.32;;
34317;SDS011;20582;52.196;20.952;2023-07-09T01:06:19;10.02;;;4.60;;
34317;SDS011;20582;52.196;20.952;2023-07-09T01:08:47;14.70;;;4.57;;
34317;SDS011;20582;52.196;20.952;2023-07-09T01:11:18;9.35;;;4.43;;
34317;SDS011;20582;52.196;20.952;2023-07-09T01:13:49;10.15;;;4.65;;
34317;SDS011;20582;52.196;20.952;2023-07-09T01:16:17;7.78;;;4.53;;
34317;SDS011;20582;52.196;20.952;2023-07-09T01:18:43;7.18;;;4.05;;
34317;SDS011;20582;52.196;20.952;2023-07-09T01:21:10;11.38;;;4.20;;
34317;SDS011;20582;52.196;20.952;2023-07-09T01:23:40;9.43;;;4.43;;
34317;SDS011;20582;52.196;20.952;2023-07-09T01:26:08;8.38;;;4.03;;
34317;SDS011;20582;52.196;20.952;2023-07-09T01:28:34;8.07;;;4.20;;
34317;SDS011;20582;52.196;20.952;2023-07-09T01:31:00;7.70;;;4.13;;
34317;SDS011;20582;52.196;20.952;2023-07-09T01:33:27;8.63;;;4.32;;
34317;SDS011;20582;52.196;20.952;2023-07-09T01:35:53;9.85;;;4.45;;
34317;SDS011;20582;52.196;20.952;2023-07-09T01:38:25;9.30;;;4.10;;
34317;SDS011;20582;52.196;20.952;2023-07-09T01:40:56;9.27;;;4.38;;
34317;SDS011;20582;52.196;20.952;2023-07-09T01:43:22;9.13;;;3.83;;
34317;SDS011;20582;52.196;20.952;2023-07-09T01:45:50;7.20;;;4.07;;
34317;SDS011;20582;52.196;20.952;2023-07-09T01:48:17;9.43;;;4.45;;
34317;SDS011;20582;52.196;20.952;2023-07-09T01:50:45;7.68;;;3.92;;
34317;SDS011;20582;52.196;20.952;2023-07-09T01:53:14;9.10;;;4.22;;
34317;SDS011;20582;52.196;20.952;2023-07-09T01:55:41;11.40;;;4.25;;
34317;SDS011;20582;52.196;20.952;2023-07-09T01:58:07;8.40;;;4.25;;
34317;SDS011;20582;52.196;20.952;2023-07-09T02:00:33;8.73;;;4.30;;
34317;SDS011;20582;52.196;20.952;2023-07-09T02:03:00;11.77;;;4.35;;
34317;SDS011;20582;52.196;20.952;2023-07-09T02:05:28;9.55;;;4.25;;
34317;SDS011;20582;52.196;20.952;2023-07-09T02:07:54;11.20;;;4.63;;
34317;SDS011;20582;52.196;20.952;2023-07-09T02:10:20;10.13;;;4.45;;
34317;SDS011;20582;52.196;20.952;2023-07-09T02:12:46;7.32;;;4.13;;
34317;SDS011;20582;52.196;20.952;2023-07-09T02:15:13;10.40;;;4.50;;
34317;SDS011;20582;52.196;20.952;2023-07-09T02:17:39;7.45;;;4.18;;
34317;SDS011;20582;52.196;20.952;2023-07-09T02:20:05;9.05;;;4.38;;
34317;SDS011;20582;52.196;20.952;2023-07-09T02:22:32;8.15;;;4.45;;
34317;SDS011;20582;52.196;20.952;2023-07-09T02:24:58;9.95;;;4.70;;
34317;SDS011;20582;52.196;20.952;2023-07-09T02:27:24;10.90;;;4.47;;
34317;SDS011;20582;52.196;20.952;2023-07-09T02:29:50;11.32;;;4.68;;
34317;SDS011;20582;52.196;20.952;2023-07-09T02:32:20;8.45;;;4.68;;
34317;SDS011;20582;52.196;20.952;2023-07-09T02:34:46;11.20;;;4.33;;
34317;SDS011;20582;52.196;20.952;2023-07-09T02:37:18;12.55;;;4.70;;
34317;SDS011;20582;52.196;20.952;2023-07-09T02:39:44;9.20;;;4.78;;
34317;SDS011;20582;52.196;20.952;2023-07-09T02:42:10;12.00;;;4.80;;
34317;SDS011;20582;52.196;20.952;2023-07-09T02:44:37;10.27;;;4.95;;
34317;SDS011;20582;52.196;20.952;2023-07-09T02:47:03;11.70;;;4.85;;
34317;SDS011;20582;52.196;20.952;2023-07-09T02:49:29;8.93;;;4.88;;
34317;SDS011;20582;52.196;20.952;2023-07-09T02:51:55;9.15;;;4.95;;
34317;SDS011;20582;52.196;20.952;2023-07-09T02:54:21;10.68;;;5.07;;
34317;SDS011;20582;52.196;20.952;2023-07-09T02:56:47;10.02;;;5.07;;
34317;SDS011;20582;52.196;20.952;2023-07-09T02:59:13;11.13;;;5.40;;
34317;SDS011;20582;52.196;20.952;2023-07-09T03:01:39;9.65;;;4.95;;
34317;SDS011;20582;52.196;20.952;2023-07-09T03:04:05;16.42;;;5.28;;
34317;SDS011;20582;52.196;20.952;2023-07-09T03:06:33;11.40;;;5.25;;
34317;SDS011;20582;52.196;20.952;2023-07-09T03:08:59;11.48;;;5.53;;
34317;SDS011;20582;52.196;20.952;2023-07-09T03:11:27;10.48;;;4.88;;
34317;SDS011;20582;52.196;20.952;2023-07-09T03:13:53;11.10;;;5.60;;
34317;SDS011;20582;52.196;20.952;2023-07-09T03:16:19;11.98;;;5.68;;
34317;SDS011;20582;52.196;20.952;2023-07-09T03:18:45;9.18;;;5.00;;
34317;SDS011;20582;52.196;20.952;2023-07-09T03:21:11;9.25;;;5.30;;
34317;SDS011;20582;52.196;20.952;2023-07-09T03:23:37;10.32;;;5.53;;
34317;SDS011;20582;52.196;20.952;2023-07-09T03:26:03;10.02;;;5.63;;
34317;SDS011;20582;52.196;20.952;2023-07-09T03:28:30;10.55;;;5.28;;
34317;SDS011;20582;52.196;20.952;2023-07-09T03:30:56;10.38;;;5.57;;
34317;SDS011;20582;52.196;20.952;2023-07-09T03:33:22;9.40;;;5.10;;
34317;SDS011;20582;52.196;20.952;2023-07-09T03:35:49;8.25;;;5.20;;
34317;SDS011;20582;52.196;20.952;2023-07-09T03:38:15;8.95;;;5.00;;
34317;SDS011;20582;52.196;20.952;2023-07-09T03:40:41;11.18;;;5.50;;
34317;SDS011;20582;52.196;20.952;2023-07-09T03:43:08;9.13;;;5.43;;
34317;SDS011;20582;52.196;20.952;2023-07-09T03:45:34;9.85;;;5.40;;
34317;SDS011;20582;52.196;20.952;2023-07-09T03:48:00;8.80;;;5.47;;
34317;SDS011;20582;52.196;20.952;2023-07-09T03:50:26;9.32;;;5.38;;
34317;SDS011;20582;52.196;20.952;2023-07-09T03:52:52;13.32;;;5.18;;
34317;SDS011;20582;52.196;20.952;2023-07-09T03:55:18;9.23;;;4.90;;
34317;SDS011;20582;52.196;20.952;2023-07-09T03:57:44;11.27;;;5.05;;
34317;SDS011;20582;52.196;20.952;2023-07-09T04:00:10;8.10;;;4.68;;
34317;SDS011;20582;52.196;20.952;2023-07-09T04:02:38;10.25;;;5.00;;
34317;SDS011;20582;52.196;20.952;2023-07-09T04:05:04;9.30;;;4.85;;
34317;SDS011;20582;52.196;20.952;2023-07-09T04:07:31;7.85;;;4.53;;
34317;SDS011;20582;52.196;20.952;2023-07-09T04:09:57;7.45;;;4.38;;
34317;SDS011;20582;52.196;20.952;2023-07-09T04:12:23;13.55;;;4.80;;
34317;SDS011;20582;52.196;20.952;2023-07-09T04:14:49;7.82;;;4.00;;
34317;SDS011;20582;52.196;20.952;2023-07-09T04:17:15;6.82;;;3.92;;
34317;SDS011;20582;52.196;20.952;2023-07-09T04:19:41;11.00;;;3.90;;
34317;SDS011;20582;52.196;20.952;2023-07-09T04:22:08;10.93;;;4.47;;
34317;SDS011;20582;52.196;20.952;2023-07-09T04:24:35;7.30;;;3.90;;
34317;SDS011;20582;52.196;20.952;2023-07-09T04:27:01;6.82;;;3.60;;
34317;SDS011;20582;52.196;20.952;2023-07-09T04:29:31;7.60;;;3.72;;
34317;SDS011;20582;52.196;20.952;2023-07-09T04:32:18;7.18;;;4.13;;
34317;SDS011;20582;52.196;20.952;2023-07-09T04:34:45;10.18;;;3.85;;
34317;SDS011;20582;52.196;20.952;2023-07-09T04:37:11;11.07;;;3.75;;
34317;SDS011;20582;52.196;20.952;2023-07-09T04:39:37;7.47;;;3.60;;
34317;SDS011;20582;52.196;20.952;2023-07-09T04:42:04;7.65;;;3.67;;
34317;SDS011;20582;52.196;20.952;2023-07-09T04:44:30;9.00;;;3.80;;
34317;SDS011;20582;52.196;20.952;2023-07-09T04:46:56;9.00;;;3.70;;
34317;SDS011;20582;52.196;20.952;2023-07-09T04:49:23;6.22;;;3.58;;
34317;SDS011;20582;52.196;20.952;2023-07-09T04:51:49;8.75;;;3.50;;
34317;SDS011;20582;52.196;20.952;2023-07-09T04:54:15;8.27;;;3.70;;
34317;SDS011;20582;52.196;20.952;2023-07-09T04:56:41;8.15;;;4.10;;
34317;SDS011;20582;52.196;20.952;2023-07-09T04:59:10;8.40;;;3.80;;
34317;SDS011;20582;52.196;20.952;2023-07-09T05:01:36;6.50;;;3.70;;
34317;SDS011;20582;52.196;20.952;2023-07-09T05:04:03;7.28;;;3.60;;
34317;SDS011;20582;52.196;20.952;2023-07-09T05:06:29;6.38;;;3.60;;
34317;SDS011;20582;52.196;20.952;2023-07-09T05:08:55;8.52;;;3.80;;
34317;SDS011;20582;52.196;20.952;2023-07-09T05:11:21;9.70;;;3.95;;
34317;SDS011;20582;52.196;20.952;2023-07-09T05:13:47;8.55;;;3.65;;
34317;SDS011;20582;52.196;20.952;2023-07-09T05:16:13;7.18;;;3.40;;
34317;SDS011;20582;52.196;20.952;2023-07-09T05:18:39;6.68;;;3.40;;
34317;SDS011;20582;52.196;20.952;2023-07-09T05:21:05;7.93;;;3.33;;
34317;SDS011;20582;52.196;20.952;2023-07-09T05:23:31;8.70;;;3.38;;
34317;SDS011;20582;52.196;20.952;2023-07-09T05:25:58;6.75;;;3.15;;
34317;SDS011;20582;52.196;20.952;2023-07-09T05:28:24;7.55;;;3.20;;
34317;SDS011;20582;52.196;20.952;2023-07-09T05:30:50;8.20;;;3.20;;
34317;SDS011;20582;52.196;20.952;2023-07-09T05:33:17;9.27;;;3.90;;
34317;SDS011;20582;52.196;20.952;2023-07-09T05:35:46;8.23;;;3.40;;
34317;SDS011;20582;52.196;20.952;2023-07-09T05:38:12;7.38;;;3.97;;
34317;SDS011;20582;52.196;20.952;2023-07-09T05:40:39;8.85;;;3.60;;
34317;SDS011;20582;52.196;20.952;2023-07-09T05:43:05;8.73;;;3.90;;
34317;SDS011;20582;52.196;20.952;2023-07-09T05:45:31;7.65;;;3.53;;
34317;SDS011;20582;52.196;20.952;2023-07-09T05:47:58;7.57;;;3.50;;
34317;SDS011;20582;52.196;20.952;2023-07-09T05:50:24;7.45;;;3.40;;
34317;SDS011;20582;52.196;20.952;2023-07-09T05:52:51;7.18;;;3.22;;
34317;SDS011;20582;52.196;20.952;2023-07-09T05:55:17;7.78;;;4.00;;
34317;SDS011;20582;52.196;20.952;2023-07-09T05:57:43;7.30;;;3.65;;
34317;SDS011;20582;52.196;20.952;2023-07-09T06:00:09;6.20;;;3.13;;
34317;SDS011;20582;52.196;20.952;2023-07-09T06:02:35;11.95;;;4.03;;
34317;SDS011;20582;52.196;20.952;2023-07-09T06:05:01;7.93;;;3.45;;
34317;SDS011;20582;52.196;20.952;2023-07-09T06:07:27;7.93;;;3.50;;
34317;SDS011;20582;52.196;20.952;2023-07-09T06:09:53;7.72;;;3.65;;
34317;SDS011;20582;52.196;20.952;2023-07-09T06:12:19;10.25;;;3.45;;
34317;SDS011;20582;52.196;20.952;2023-07-09T06:14:45;8.75;;;3.50;;
34317;SDS011;20582;52.196;20.952;2023-07-09T06:17:11;9.68;;;3.78;;
34317;SDS011;20582;52.196;20.952;2023-07-09T06:19:38;9.52;;;3.65;;
34317;SDS011;20582;52.196;20.952;2023-07-09T06:22:04;7.57;;;3.47;;
34317;SDS011;20582;52.196;20.952;2023-07-09T06:24:30;7.05;;;3.33;;
34317;SDS011;20582;52.196;20.952;2023-07-09T06:26:56;7.10;;;3.13;;
34317;SDS011;20582;52.196;20.952;2023-07-09T06:29:23;5.90;;;3.50;;
34317;SDS011;20582;52.196;20.952;2023-07-09T06:31:49;9.38;;;3.40;;
34317;SDS011;20582;52.196;20.952;2023-07-09T06:34:15;6.50;;;3.10;;
34317;SDS011;20582;52.196;20.952;2023-07-09T06:36:41;9.18;;;3.38;;
34317;SDS011;20582;52.196;20.952;2023-07-09T06:39:07;7.25;;;3.10;;
34317;SDS011;20582;52.196;20.952;2023-07-09T06:41:33;8.23;;;3.28;;
34317;SDS011;20582;52.196;20.952;2023-07-09T06:44:04;8.15;;;3.33;;
34317;SDS011;20582;52.196;20.952;2023-07-09T06:46:29;8.15;;;3.70;;
34317;SDS011;20582;52.196;20.952;2023-07-09T06:48:55;6.18;;;3.10;;
34317;SDS011;20582;52.196;20.952;2023-07-09T06:51:21;6.57;;;3.40;;
34317;SDS011;20582;52.196;20.952;2023-07-09T06:53:47;5.82;;;3.15;;
34317;SDS011;20582;52.196;20.952;2023-07-09T06:56:16;9.68;;;3.60;;
34317;SDS011;20582;52.196;20.952;2023-07-09T06:58:42;6.45;;;3.17;;
34317;SDS011;20582;52.196;20.952;2023-07-09T07:01:07;9.65;;;3.25;;
34317;SDS011;20582;52.196;20.952;2023-07-09T07:03:36;7.07;;;3.20;;
34317;SDS011;20582;52.196;20.952;2023-07-09T07:06:02;6.95;;;2.90;;
34317;SDS011;20582;52.196;20.952;2023-07-09T07:08:30;7.20;;;3.08;;
34317;SDS011;20582;52.196;20.952;2023-07-09T07:10:58;7.68;;;3.05;;
34317;SDS011;20582;52.196;20.952;2023-07-09T07:13:30;7.65;;;3.85;;
34317;SDS011;20582;52.196;20.952;2023-07-09T07:15:56;7.85;;;3.28;;
34317;SDS011;20582;52.196;20.952;2023-07-09T07:18:22;6.15;;;3.10;;
34317;SDS011;20582;52.196;20.952;2023-07-09T07:20:48;7.28;;;3.08;;
34317;SDS011;20582;52.196;20.952;2023-07-09T07:23:15;8.25;;;3.30;;
34317;SDS011;20582;52.196;20.952;2023-07-09T07:25:41;7.85;;;3.28;;
34317;SDS011;20582;52.196;20.952;2023-07-09T07:28:07;8.05;;;2.90;;
34317;SDS011;20582;52.196;20.952;2023-07-09T07:30:33;7.00;;;3.08;;
34317;SDS011;20582;52.196;20.952;2023-07-09T07:32:59;7.38;;;2.85;;
34317;SDS011;20582;52.196;20.952;2023-07-09T07:35:25;6.85;;;3.00;;
34317;SDS011;20582;52.196;20.952;2023-07-09T07:37:51;9.63;;;3.17;;
34317;SDS011;20582;52.196;20.952;2023-07-09T07:40:17;5.65;;;2.83;;
34317;SDS011;20582;52.196;20.952;2023-07-09T07:42:43;7.55;;;3.17;;
34317;SDS011;20582;52.196;20.952;2023-07-09T07:45:09;8.13;;;3.55;;
34317;SDS011;20582;52.196;20.952;2023-07-09T07:47:35;6.88;;;3.15;;
34317;SDS011;20582;52.196;20.952;2023-07-09T07:50:01;7.05;;;3.08;;
34317;SDS011;20582;52.196;20.952;2023-07-09T07:52:27;5.20;;;2.92;;
34317;SDS011;20582;52.196;20.952;2023-07-09T07:54:53;6.22;;;2.70;;
34317;SDS011;20582;52.196;20.952;2023-07-09T07:57:19;6.90;;;2.75;;
34317;SDS011;20582;52.196;20.952;2023-07-09T07:59:45;7.40;;;2.53;;
34317;SDS011;20582;52.196;20.952;2023-07-09T08:02:12;6.22;;;2.75;;
34317;SDS011;20582;52.196;20.952;2023-07-09T08:04:39;4.97;;;2.75;;
34317;SDS011;20582;52.196;20.952;2023-07-09T08:07:05;6.90;;;2.80;;
34317;SDS011;20582;52.196;20.952;2023-07-09T08:09:32;5.43;;;2.80;;
34317;SDS011;20582;52.196;20.952;2023-07-09T08:11:58;8.32;;;4.28;;
34317;SDS011;20582;52.196;20.952;2023-07-09T08:14:24;8.73;;;2.97;;
34317;SDS011;20582;52.196;20.952;2023-07-09T08:16:50;7.20;;;2.53;;
34317;SDS011;20582;52.196;20.952;2023-07-09T08:19:18;9.63;;;2.72;;
34317;SDS011;20582;52.196;20.952;2023-07-09T08:21:44;6.35;;;2.97;;
34317;SDS011;20582;52.196;20.952;2023-07-09T08:24:10;6.57;;;2.83;;
34317;SDS011;20582;52.196;20.952;2023-07-09T08:26:36;6.82;;;2.83;;
34317;SDS011;20582;52.196;20.952;2023-07-09T08:29:03;6.32;;;2.78;;
34317;SDS011;20582;52.196;20.952;2023-07-09T08:31:30;7.20;;;2.92;;
34317;SDS011;20582;52.196;20.952;2023-07-09T08:33:56;10.68;;;2.63;;
34317;SDS011;20582;52.196;20.952;2023-07-09T08:36:22;6.57;;;2.50;;
34317;SDS011;20582;52.196;20.952;2023-07-09T08:38:48;7.70;;;2.78;;
34317;SDS011;20582;52.196;20.952;2023-07-09T08:43:53;5.07;;;2.35;;
34317;SDS011;20582;52.196;20.952;2023-07-09T08:46:29;8.02;;;2.30;;
34317;SDS011;20582;52.196;20.952;2023-07-09T08:48:57;5.55;;;2.60;;
34317;SDS011;20582;52.196;20.952;2023-07-09T08:51:26;5.20;;;2.33;;
34317;SDS011;20582;52.196;20.952;2023-07-09T08:53:54;6.78;;;2.70;;
34317;SDS011;20582;52.196;20.952;2023-07-09T08:56:22;7.65;;;2.50;;
34317;SDS011;20582;52.196;20.952;2023-07-09T08:58:49;7.32;;;2.50;;
34317;SDS011;20582;52.196;20.952;2023-07-09T09:01:23;5.55;;;2.10;;
34317;SDS011;20582;52.196;20.952;2023-07-09T09:03:50;4.13;;;1.88;;
34317;SDS011;20582;52.196;20.952;2023-07-09T09:06:18;5.03;;;2.25;;
34317;SDS011;20582;52.196;20.952;2023-07-09T09:11:12;5.10;;;2.50;;
34317;SDS011;20582;52.196;20.952;2023-07-09T09:13:39;6.20;;;2.17;;
34317;SDS011;20582;52.196;20.952;2023-07-09T09:16:21;5.93;;;2.65;;
34317;SDS011;20582;52.196;20.952;2023-07-09T09:18:48;5.70;;;2.50;;
34317;SDS011;20582;52.196;20.952;2023-07-09T09:21:21;4.07;;;2.17;;
34317;SDS011;20582;52.196;20.952;2023-07-09T09:23:58;3.38;;;2.00;;
34317;SDS011;20582;52.196;20.952;2023-07-09T09:26:31;5.28;;;2.13;;
34317;SDS011;20582;52.196;20.952;2023-07-09T09:28:58;5.97;;;2.15;;
34317;SDS011;20582;52.196;20.952;2023-07-09T09:31:24;4.25;;;2.13;;
34317;SDS011;20582;52.196;20.952;2023-07-09T09:33:52;5.28;;;2.22;;
34317;SDS011;20582;52.196;20.952;2023-07-09T09:36:22;4.30;;;2.55;;
34317;SDS011;20582;52.196;20.952;2023-07-09T09:38:49;4.13;;;2.58;;
34317;SDS011;20582;52.196;20.952;2023-07-09T09:41:24;3.97;;;2.30;;
34317;SDS011;20582;52.196;20.952;2023-07-09T09:43:52;3.97;;;2.53;;
34317;SDS011;20582;52.196;20.952;2023-07-09T09:46:19;4.90;;;2.75;;
34317;SDS011;20582;52.196;20.952;2023-07-09T09:48:47;3.45;;;2.97;;
34317;SDS011;20582;52.196;20.952;2023-07-09T09:51:13;6.30;;;3.45;;
34317;SDS011;20582;52.196;20.952;2023-07-09T09:53:40;9.15;;;3.95;;
34317;SDS011;20582;52.196;20.952;2023-07-09T09:56:13;4.28;;;3.88;;
34317;SDS011;20582;52.196;20.952;2023-07-09T09:58:40;6.18;;;4.70;;
34317;SDS011;20582;52.196;20.952;2023-07-09T10:01:11;7.25;;;5.20;;
34317;SDS011;20582;52.196;20.952;2023-07-09T10:03:39;6.78;;;5.28;;
34317;SDS011;20582;52.196;20.952;2023-07-09T10:06:15;5.95;;;5.38;;
34317;SDS011;20582;52.196;20.952;2023-07-09T10:08:45;6.57;;;5.97;;
34317;SDS011;20582;52.196;20.952;2023-07-09T10:11:22;6.68;;;6.10;;
34317;SDS011;20582;52.196;20.952;2023-07-09T10:13:51;5.72;;;5.22;;
34317;SDS011;20582;52.196;20.952;2023-07-09T10:16:37;6.57;;;6.05;;
34317;SDS011;20582;52.196;20.952;2023-07-09T10:19:09;6.72;;;6.13;;
34317;SDS011;20582;52.196;20.952;2023-07-09T10:21:43;6.30;;;5.80;;
34317;SDS011;20582;52.196;20.952;2023-07-09T10:26:53;6.20;;;5.70;;
34317;SDS011;20582;52.196;20.952;2023-07-09T10:39:53;6.72;;;6.07;;
34317;SDS011;20582;52.196;20.952;2023-07-09T10:42:29;6.72;;;6.13;;
34317;SDS011;20582;52.196;20.952;2023-07-09T10:44:57;6.60;;;6.00;;
34317;SDS011;20582;52.196;20.952;2023-07-09T10:47:26;7.63;;;6.93;;
34317;SDS011;20582;52.196;20.952;2023-07-09T10:49:53;7.60;;;6.90;;
34317;SDS011;20582;52.196;20.952;2023-07-09T10:52:30;7.43;;;6.82;;
34317;SDS011;20582;52.196;20.952;2023-07-09T10:55:04;7.03;;;6.47;;
34317;SDS011;20582;52.196;20.952;2023-07-09T10:57:39;7.47;;;6.78;;
34317;SDS011;20582;52.196;20.952;2023-07-09T11:00:11;7.88;;;7.13;;
34317;SDS011;20582;52.196;20.952;2023-07-09T11:02:41;7.22;;;6.65;;
34317;SDS011;20582;52.196;20.952;2023-07-09T11:05:08;7.28;;;6.68;;
34317;SDS011;20582;52.196;20.952;2023-07-09T11:10:09;5.72;;;5.18;;
34317;SDS011;20582;52.196;20.952;2023-07-09T11:12:38;5.80;;;5.30;;
34317;SDS011;20582;52.196;20.952;2023-07-09T11:15:14;5.18;;;4.53;;
34317;SDS011;20582;52.196;20.952;2023-07-09T11:17:44;5.20;;;4.80;;
34317;SDS011;20582;52.196;20.952;2023-07-09T11:20:54;5.63;;;5.13;;
34317;SDS011;20582;52.196;20.952;2023-07-09T11:23:01;5.75;;;5.25;;
34317;SDS011;20582;52.196;20.952;2023-07-09T11:25:47;5.78;;;5.28;;
34317;SDS011;20582;52.196;20.952;2023-07-09T11:28:13;5.93;;;5.43;;
34317;SDS011;20582;52.196;20.952;2023-07-09T11:30:49;5.75;;;5.32;;
34317;SDS011;20582;52.196;20.952;2023-07-09T11:33:20;6.47;;;5.97;;
34317;SDS011;20582;52.196;20.952;2023-07-09T11:35:52;7.22;;;6.63;;
34317;SDS011;20582;52.196;20.952;2023-07-09T11:38:20;6.65;;;6.05;;
34317;SDS011;20582;52.196;20.952;2023-07-09T11:40:50;7.05;;;6.45;;
34317;SDS011;20582;52.196;20.952;2023-07-09T11:43:26;7.57;;;6.88;;
34317;SDS011;20582;52.196;20.952;2023-07-09T11:45:52;6.70;;;6.10;;
34317;SDS011;20582;52.196;20.952;2023-07-09T11:48:23;5.90;;;5.40;;
34317;SDS011;20582;52.196;20.952;2023-07-09T11:50:50;6.00;;;5.40;;
34317;SDS011;20582;52.196;20.952;2023-07-09T11:55:52;4.82;;;4.40;;
34317;SDS011;20582;52.196;20.952;2023-07-09T11:58:18;5.18;;;4.55;;
34317;SDS011;20582;52.196;20.952;2023-07-09T12:00:48;5.53;;;3.60;;
34317;SDS011;20582;52.196;20.952;2023-07-09T12:03:57;3.92;;;3.58;;
34317;SDS011;20582;52.196;20.952;2023-07-09T12:06:13;3.80;;;3.50;;
34317;SDS011;20582;52.196;20.952;2023-07-09T12:08:42;5.22;;;3.85;;
34317;SDS011;20582;52.196;20.952;2023-07-09T12:11:19;4.30;;;3.90;;
34317;SDS011;20582;52.196;20.952;2023-07-09T12:13:46;3.28;;;2.97;;
34317;SDS011;20582;52.196;20.952;2023-07-09T12:16:25;3.28;;;2.97;;
34317;SDS011;20582;52.196;20.952;2023-07-09T12:18:51;3.47;;;3.17;;
34317;SDS011;20582;52.196;20.952;2023-07-09T12:21:19;4.00;;;3.50;;
34317;SDS011;20582;52.196;20.952;2023-07-09T12:23:45;3.80;;;3.50;;
34317;SDS011;20582;52.196;20.952;2023-07-09T12:26:12;4.53;;;3.50;;
34317;SDS011;20582;52.196;20.952;2023-07-09T12:28:39;6.13;;;3.70;;
34317;SDS011;20582;52.196;20.952;2023-07-09T12:31:10;4.35;;;3.80;;
34317;SDS011;20582;52.196;20.952;2023-07-09T12:33:38;4.07;;;3.78;;
34317;SDS011;20582;52.196;20.952;2023-07-09T12:36:04;4.05;;;3.75;;
34317;SDS011;20582;52.196;20.952;2023-07-09T12:38:33;3.90;;;3.60;;
34317;SDS011;20582;52.196;20.952;2023-07-09T12:41:04;4.00;;;3.60;;
34317;SDS011;20582;52.196;20.952;2023-07-09T12:43:31;3.85;;;3.45;;
34317;SDS011;20582;52.196;20.952;2023-07-09T12:45:58;3.50;;;3.20;;
34317;SDS011;20582;52.196;20.952;2023-07-09T12:48:25;4.40;;;3.00;;
34317;SDS011;20582;52.196;20.952;2023-07-09T12:50:54;4.57;;;2.80;;
34317;SDS011;20582;52.196;20.952;2023-07-09T12:53:22;4.40;;;2.65;;
34317;SDS011;20582;52.196;20.952;2023-07-09T12:55:51;3.00;;;2.58;;
34317;SDS011;20582;52.196;20.952;2023-07-09T12:58:24;4.40;;;2.47;;
34317;SDS011;20582;52.196;20.952;2023-07-09T13:00:52;5.35;;;2.38;;
34317;SDS011;20582;52.196;20.952;2023-07-09T13:03:25;4.70;;;2.33;;
34317;SDS011;20582;52.196;20.952;2023-07-09T13:05:55;3.50;;;2.20;;
34317;SDS011;20582;52.196;20.952;2023-07-09T13:08:22;7.65;;;3.83;;
34317;SDS011;20582;52.196;20.952;2023-07-09T13:10:48;3.95;;;2.45;;
34317;SDS011;20582;52.196;20.952;2023-07-09T13:13:16;3.03;;;2.35;;
34317;SDS011;20582;52.196;20.952;2023-07-09T13:15:44;2.47;;;2.10;;
34317;SDS011;20582;52.196;20.952;2023-07-09T13:18:14;2.78;;;2.10;;
34317;SDS011;20582;52.196;20.952;2023-07-09T13:20:44;3.13;;;2.20;;
34317;SDS011;20582;52.196;20.952;2023-07-09T13:23:19;2.72;;;2.20;;
34317;SDS011;20582;52.196;20.952;2023-07-09T13:25:45;4.10;;;2.30;;
34317;SDS011;20582;52.196;20.952;2023-07-09T13:30:40;3.20;;;1.92;;
34317;SDS011;20582;52.196;20.952;2023-07-09T13:33:10;3.08;;;2.20;;
34317;SDS011;20582;52.196;20.952;2023-07-09T13:35:37;5.20;;;2.15;;
34317;SDS011;20582;52.196;20.952;2023-07-09T13:38:05;3.65;;;2.20;;
34317;SDS011;20582;52.196;20.952;2023-07-09T13:40:35;3.22;;;2.20;;
34317;SDS011;20582;52.196;20.952;2023-07-09T13:43:01;3.45;;;2.17;;
34317;SDS011;20582;52.196;20.952;2023-07-09T13:45:28;4.20;;;2.28;;
34317;SDS011;20582;52.196;20.952;2023-07-09T13:47:55;2.28;;;2.08;;
34317;SDS011;20582;52.196;20.952;2023-07-09T13:50:22;2.35;;;2.10;;
34317;SDS011;20582;52.196;20.952;2023-07-09T13:52:48;2.17;;;1.90;;
34317;SDS011;20582;52.196;20.952;2023-07-09T13:55:18;2.85;;;2.00;;
34317;SDS011;20582;52.196;20.952;2023-07-09T13:57:46;2.95;;;1.92;;
34317;SDS011;20582;52.196;20.952;2023-07-09T14:00:12;2.95;;;2.20;;
34317;SDS011;20582;52.196;20.952;2023-07-09T14:02:39;1.98;;;1.70;;
34317;SDS011;20582;52.196;20.952;2023-07-09T14:05:06;2.88;;;1.73;;
34317;SDS011;20582;52.196;20.952;2023-07-09T14:07:34;3.25;;;1.90;;
34317;SDS011;20582;52.196;20.952;2023-07-09T14:10:01;2.65;;;1.95;;
34317;SDS011;20582;52.196;20.952;2023-07-09T14:12:29;4.65;;;1.90;;
34317;SDS011;20582;52.196;20.952;2023-07-09T14:14:57;3.17;;;2.00;;
34317;SDS011;20582;52.196;20.952;2023-07-09T14:17:24;3.78;;;2.00;;
34317;SDS011;20582;52.196;20.952;2023-07-09T14:19:51;2.90;;;2.10;;
34317;SDS011;20582;52.196;20.952;2023-07-09T14:24:43;3.63;;;1.88;;
34317;SDS011;20582;52.196;20.952;2023-07-09T14:27:10;3.05;;;1.80;;
34317;SDS011;20582;52.196;20.952;2023-07-09T14:29:36;3.20;;;1.70;;
34317;SDS011;20582;52.196;20.952;2023-07-09T14:32:04;2.47;;;2.00;;
34317;SDS011;20582;52.196;20.952;2023-07-09T14:34:33;2.78;;;1.80;;
34317;SDS011;20582;52.196;20.952;2023-07-09T14:37:04;3.72;;;2.00;;
34317;SDS011;20582;52.196;20.952;2023-07-09T14:39:30;2.72;;;1.73;;
34317;SDS011;20582;52.196;20.952;2023-07-09T14:41:57;6.20;;;2.08;;
34317;SDS011;20582;52.196;20.952;2023-07-09T14:44:26;3.15;;;2.05;;
34317;SDS011;20582;52.196;20.952;2023-07-09T14:46:54;3.83;;;2.10;;
34317;SDS011;20582;52.196;20.952;2023-07-09T14:49:21;3.15;;;1.70;;
34317;SDS011;20582;52.196;20.952;2023-07-09T14:51:47;3.10;;;1.90;;
34317;SDS011;20582;52.196;20.952;2023-07-09T14:54:23;2.50;;;1.92;;
34317;SDS011;20582;52.196;20.952;2023-07-09T14:56:51;5.22;;;1.90;;
34317;SDS011;20582;52.196;20.952;2023-07-09T14:59:17;4.65;;;2.25;;
34317;SDS011;20582;52.196;20.952;2023-07-09T15:01:43;4.53;;;2.20;;
34317;SDS011;20582;52.196;20.952;2023-07-09T15:07:07;3.40;;;1.88;;
34317;SDS011;20582;52.196;20.952;2023-07-09T15:09:36;3.58;;;2.30;;
34317;SDS011;20582;52.196;20.952;2023-07-09T15:12:02;2.55;;;1.85;;